createdAt,value
2023-02-07T00:01:41.402Z,103878.56
2023-02-07T00:04:11.271Z,103873.41
2023-02-07T00:06:39.663Z,103866.31
2023-02-07T00:09:09.847Z,103865.66
2023-02-07T00:11:41.000Z,103858.03
2023-02-07T00:14:11.745Z,103846.84
2023-02-07T00:16:40.568Z,103852.28
2023-02-07T00:19:10.524Z,103844.66
2023-02-07T00:21:39.150Z,103849.66
2023-02-07T00:24:08.612Z,103849.75
2023-02-07T00:26:37.209Z,103849.66
2023-02-07T00:29:05.822Z,103851.41
2023-02-07T00:31:36.419Z,103848.84
2023-02-07T00:34:07.058Z,103850.41
2023-02-07T00:36:37.984Z,103850.81
2023-02-07T00:39:11.550Z,103852.63
2023-02-07T00:41:40.261Z,103843.81
2023-02-07T00:44:08.983Z,103843.75
2023-02-07T00:46:37.689Z,103843.81
2023-02-07T00:49:07.568Z,103837.03
2023-02-07T00:51:37.431Z,103843.19
2023-02-07T00:54:06.184Z,103829.13
2023-02-07T00:56:35.040Z,103704.59
2023-02-07T00:59:03.798Z,103838.56
2023-02-07T01:01:32.408Z,103837.09
2023-02-07T01:04:00.907Z,103827.72
2023-02-07T01:06:33.522Z,103828.06
2023-02-07T01:09:04.984Z,103835.56
2023-02-07T01:11:33.772Z,103831.81
2023-02-07T01:14:02.622Z,103825.94
2023-02-07T01:16:33.990Z,103831.69
2023-02-07T01:19:05.561Z,103836.41
2023-02-07T01:21:33.945Z,103832.66
2023-02-07T01:24:03.691Z,103805.09
2023-02-07T01:26:32.012Z,103830.94
2023-02-07T01:29:00.783Z,103824.41
2023-02-07T01:31:29.736Z,103839.47
2023-02-07T01:34:01.013Z,103830.22
2023-02-07T01:36:30.863Z,103830.69
2023-02-07T01:38:59.332Z,103834.94
2023-02-07T01:41:29.348Z,103835.56
2023-02-07T01:44:01.791Z,103839.47
2023-02-07T01:46:32.273Z,103842.16
2023-02-07T01:49:06.329Z,103720.09
2023-02-07T01:51:36.247Z,103851.13
2023-02-07T01:54:09.713Z,103850.50
2023-02-07T01:56:46.546Z,103850.22
2023-02-07T01:59:16.740Z,103848.19
2023-02-07T02:01:46.467Z,103845.88
2023-02-07T02:04:14.976Z,103853.00
2023-02-07T02:06:44.765Z,103852.25
2023-02-07T02:09:15.951Z,103848.47
2023-02-07T02:12:11.340Z,103846.03
2023-02-07T02:15:09.003Z,103859.31
2023-02-07T02:17:57.217Z,103850.66
2023-02-07T02:21:19.234Z,103835.72
2023-02-07T02:24:38.577Z,103835.00
2023-02-07T02:27:18.302Z,103841.69
2023-02-07T02:30:33.971Z,103728.84
2023-02-07T02:33:43.532Z,103840.44
2023-02-07T02:36:23.494Z,103844.66
2023-02-07T02:39:00.567Z,103843.34
2023-02-07T02:41:36.737Z,103824.88
2023-02-07T02:44:12.920Z,103834.66
2023-02-07T02:46:42.599Z,103837.47
2023-02-07T02:49:16.666Z,103839.56
2023-02-07T02:51:45.017Z,103835.66
2023-02-07T02:54:33.476Z,103840.97
2023-02-07T02:57:44.917Z,103821.06
2023-02-07T03:00:30.238Z,103810.81
2023-02-07T03:03:21.310Z,103817.47
2023-02-07T03:06:04.456Z,103818.69
2023-02-07T03:08:42.294Z,103817.84
2023-02-07T03:11:15.836Z,103792.03
2023-02-07T03:14:01.150Z,103809.34
2023-02-07T03:16:37.297Z,103797.16
2023-02-07T03:19:11.192Z,103813.94
2023-02-07T03:21:46.328Z,103712.78
2023-02-07T03:24:18.733Z,103804.56
2023-02-07T03:26:52.518Z,103790.75
2023-02-07T03:29:24.039Z,103803.50
2023-02-07T03:31:57.920Z,103802.06
2023-02-07T03:34:31.035Z,103794.56
2023-02-07T03:37:05.771Z,103795.59
2023-02-07T03:39:34.962Z,103800.16
2023-02-07T03:42:09.001Z,103802.41
2023-02-07T03:44:39.354Z,103799.31
2023-02-07T03:47:07.732Z,103802.38
2023-02-07T03:49:36.021Z,103807.38
2023-02-07T03:52:06.097Z,103799.41
2023-02-07T03:54:34.446Z,103797.59
2023-02-07T03:57:02.779Z,103801.84
2023-02-07T03:59:31.269Z,103804.13
2023-02-07T04:01:59.593Z,103800.38
2023-02-07T04:04:27.984Z,103807.72
2023-02-07T04:06:56.373Z,103816.91
2023-02-07T04:09:27.856Z,103810.34
2023-02-07T04:11:56.166Z,103816.56
2023-02-07T04:14:24.581Z,103815.78
2023-02-07T04:16:52.856Z,103812.75
2023-02-07T04:19:21.336Z,103802.94
2023-02-07T04:21:49.738Z,103799.88
2023-02-07T04:24:18.396Z,103808.47
2023-02-07T04:26:48.099Z,103807.19
2023-02-07T04:29:16.649Z,103811.09
2023-02-07T04:31:44.996Z,103805.06
2023-02-07T04:34:13.328Z,103795.94
2023-02-07T04:36:41.842Z,103783.63
2023-02-07T04:39:10.376Z,103810.75
2023-02-07T04:41:39.427Z,103800.94
2023-02-07T04:44:09.114Z,103798.00
2023-02-07T04:46:37.506Z,103804.06
2023-02-07T04:49:05.923Z,103807.28
2023-02-07T04:51:34.623Z,103803.72
2023-02-07T04:54:02.907Z,103803.13
2023-02-07T04:56:31.232Z,103792.50
2023-02-07T04:58:59.567Z,103780.28
2023-02-07T05:01:29.403Z,103788.06
2023-02-07T05:03:57.828Z,103783.00
2023-02-07T05:06:26.162Z,103793.28
2023-02-07T05:08:54.535Z,103796.81
2023-02-07T05:11:22.844Z,103801.72
2023-02-07T05:13:51.356Z,103801.63
2023-02-07T05:16:19.715Z,103804.97
2023-02-07T05:18:49.387Z,103806.28
2023-02-07T05:21:17.684Z,103792.31
2023-02-07T05:23:46.008Z,103799.41
2023-02-07T05:26:14.900Z,103804.94
2023-02-07T05:28:43.207Z,103812.91
2023-02-07T05:31:11.662Z,103806.66
2023-02-07T05:33:39.206Z,103808.66
2023-02-07T05:36:10.724Z,103809.38
2023-02-07T05:38:39.030Z,103810.28
2023-02-07T05:41:07.424Z,103806.84
2023-02-07T05:43:35.741Z,103774.28
2023-02-07T05:46:04.224Z,103802.31
2023-02-07T05:48:32.541Z,103805.13
2023-02-07T05:51:00.769Z,103806.66
2023-02-07T05:53:30.441Z,103807.94
2023-02-07T05:55:58.731Z,103805.91
2023-02-07T05:58:27.105Z,103815.25
2023-02-07T06:00:56.591Z,103813.16
2023-02-07T06:03:24.888Z,103815.69
2023-02-07T06:05:53.203Z,103815.69
2023-02-07T06:08:21.735Z,103806.31
2023-02-07T06:10:51.466Z,103815.06
2023-02-07T06:13:19.766Z,103825.41
2023-02-07T06:15:49.142Z,103826.44
2023-02-07T06:18:17.556Z,103824.59
2023-02-07T06:20:45.916Z,103816.47
2023-02-07T06:23:14.167Z,103816.75
2023-02-07T06:25:43.083Z,103838.44
2023-02-07T06:28:12.893Z,103836.22
2023-02-07T06:30:41.401Z,103842.47
2023-02-07T06:33:09.843Z,103841.56
2023-02-07T06:35:38.422Z,103835.31
2023-02-07T06:38:06.937Z,103832.00
2023-02-07T06:40:35.243Z,103840.78
2023-02-07T06:43:03.540Z,103837.22
2023-02-07T06:45:33.264Z,103845.19
2023-02-07T06:48:01.588Z,103795.50
2023-02-07T06:50:30.074Z,103843.41
2023-02-07T06:53:01.878Z,103844.31
2023-02-07T06:55:31.379Z,103838.34
2023-02-07T06:57:59.815Z,103832.41
2023-02-07T07:00:28.358Z,103840.28
2023-02-07T07:03:00.221Z,103838.97
2023-02-07T07:05:29.261Z,103840.78
2023-02-07T07:07:57.700Z,103836.97
2023-02-07T07:10:26.141Z,103848.38
2023-02-07T07:12:54.425Z,103846.25
2023-02-07T07:15:22.853Z,103849.25
2023-02-07T07:17:51.135Z,103855.91
2023-02-07T07:20:21.257Z,103860.94
2023-02-07T07:22:50.282Z,103863.19
2023-02-07T07:25:18.830Z,103869.25
2023-02-07T07:27:47.582Z,103871.09
2023-02-07T07:30:16.316Z,103866.91
2023-02-07T07:32:44.653Z,103876.19
2023-02-07T07:35:12.936Z,103855.03
2023-02-07T07:37:42.834Z,103875.59
2023-02-07T07:40:12.782Z,103880.44
2023-02-07T07:42:41.361Z,103876.13
2023-02-07T07:45:30.000Z,103878.50
2023-02-07T07:47:58.311Z,103883.81
2023-02-07T07:50:26.708Z,103882.81
2023-02-07T07:52:56.437Z,103883.72
2023-02-07T07:55:26.407Z,103882.72
2023-02-07T07:57:54.933Z,103888.19
2023-02-07T08:00:23.218Z,103887.63
2023-02-07T08:02:51.644Z,103878.84
2023-02-07T08:05:20.274Z,103869.13
2023-02-07T08:07:48.620Z,103885.84
2023-02-07T08:10:18.432Z,103862.88
2023-02-07T08:12:46.845Z,103888.59
2023-02-07T08:15:15.323Z,103896.03
2023-02-07T08:17:43.658Z,103888.16
2023-02-07T08:20:12.883Z,103890.22
2023-02-07T08:22:41.609Z,103894.66
2023-02-07T08:25:10.750Z,103882.47
2023-02-07T08:27:40.677Z,103886.25
2023-02-07T08:30:12.433Z,103880.25
2023-02-07T08:32:41.150Z,103886.25
2023-02-07T08:35:10.548Z,103884.31
2023-02-07T08:37:39.744Z,103890.00
2023-02-07T08:40:09.761Z,103862.50
2023-02-07T08:42:39.559Z,103891.72
2023-02-07T08:45:09.149Z,103900.59
2023-02-07T08:47:37.537Z,103882.50
2023-02-07T08:50:07.680Z,103884.75
2023-02-07T08:52:36.242Z,103890.91
2023-02-07T08:55:05.180Z,103895.28
2023-02-07T08:57:33.535Z,103898.72
2023-02-07T09:00:04.099Z,103904.03
2023-02-07T09:02:32.444Z,103902.88
2023-02-07T09:05:00.750Z,103876.50
2023-02-07T09:07:29.032Z,103887.97
2023-02-07T09:09:57.416Z,103891.22
2023-02-07T09:12:25.707Z,103886.28
2023-02-07T09:14:53.982Z,103877.72
2023-02-07T09:17:23.714Z,103887.59
2023-02-07T09:19:52.026Z,103886.06
2023-02-07T09:22:20.550Z,103896.59
2023-02-07T09:24:49.189Z,103897.78
2023-02-07T09:27:17.508Z,103895.91
2023-02-07T09:29:46.090Z,103892.31
2023-02-07T09:32:14.524Z,103886.47
2023-02-07T09:34:44.384Z,103885.81
2023-02-07T09:37:12.843Z,103892.44
2023-02-07T09:39:42.717Z,103887.31
2023-02-07T09:42:25.565Z,103903.53
2023-02-07T09:44:59.035Z,103895.97
2023-02-07T09:47:28.257Z,103891.88
2023-02-07T09:50:03.345Z,103879.56
2023-02-07T09:52:37.314Z,103887.81
2023-02-07T09:55:07.488Z,103892.06
2023-02-07T09:57:44.095Z,103895.34
2023-02-07T10:00:24.688Z,103881.06
2023-02-07T10:02:55.741Z,103879.66
2023-02-07T10:05:41.740Z,103875.94
2023-02-07T10:08:14.238Z,103869.53
2023-02-07T10:10:47.559Z,103883.91
2023-02-07T10:13:37.246Z,103892.03
2023-02-07T10:16:25.450Z,103884.56
2023-02-07T10:19:01.167Z,103895.25
2023-02-07T10:21:38.816Z,103897.88
2023-02-07T10:24:25.577Z,103897.78
2023-02-07T10:26:56.277Z,103900.53
2023-02-07T10:29:42.612Z,103913.59
2023-02-07T10:32:16.967Z,103914.81
2023-02-07T10:34:50.075Z,103912.28
2023-02-07T10:37:23.424Z,103902.38
2023-02-07T10:40:03.320Z,103908.91
2023-02-07T10:42:35.523Z,103910.41
2023-02-07T10:45:04.052Z,103913.13
2023-02-07T10:47:39.754Z,103915.31
2023-02-07T10:50:18.486Z,103917.69
2023-02-07T10:52:54.720Z,103846.06
2023-02-07T10:55:40.229Z,103916.03
2023-02-07T10:58:22.437Z,103924.28
2023-02-07T11:00:53.788Z,103928.84
2023-02-07T11:03:23.706Z,103914.25
2023-02-07T11:05:58.593Z,103933.63
2023-02-07T11:08:30.918Z,103906.34
2023-02-07T11:11:01.279Z,103908.00
2023-02-07T11:13:32.624Z,103914.72
2023-02-07T11:16:06.146Z,103907.00
2023-02-07T11:18:45.241Z,103919.53
2023-02-07T11:21:27.238Z,103918.97
2023-02-07T11:24:02.305Z,103908.75
2023-02-07T11:26:31.905Z,103900.59
2023-02-07T11:29:08.363Z,103897.22
2023-02-07T11:31:39.068Z,103898.41
2023-02-07T11:34:12.301Z,103888.00
2023-02-07T11:36:40.738Z,103810.81
2023-02-07T11:39:19.502Z,103887.81
2023-02-07T11:41:56.940Z,103886.44
2023-02-07T11:44:28.472Z,103868.00
2023-02-07T11:47:04.924Z,103872.66
2023-02-07T11:49:44.116Z,103878.28
2023-02-07T11:52:13.333Z,103876.81
2023-02-07T11:54:50.555Z,103872.59
2023-02-07T11:57:20.364Z,103865.72
2023-02-07T11:59:55.633Z,103854.56
2023-02-07T12:02:26.939Z,103857.22
2023-02-07T12:04:56.676Z,103855.44
2023-02-07T12:07:31.308Z,103853.72
2023-02-07T12:10:03.005Z,103754.84
2023-02-07T12:12:40.326Z,103846.50
2023-02-07T12:15:16.193Z,103849.19
2023-02-07T12:17:58.780Z,103848.28
2023-02-07T12:20:29.604Z,103841.56
2023-02-07T12:23:31.431Z,103844.47
2023-02-07T12:26:01.378Z,103839.41
2023-02-07T12:28:36.344Z,103838.25
2023-02-07T12:31:16.641Z,103740.50
2023-02-07T12:33:54.168Z,103860.88
2023-02-07T12:36:29.055Z,103854.47
2023-02-07T12:39:04.600Z,103857.28
2023-02-07T12:41:40.910Z,103853.25
2023-02-07T12:44:23.656Z,103853.25
2023-02-07T12:47:02.377Z,103855.78
2023-02-07T12:50:03.815Z,103769.22
2023-02-07T12:52:45.256Z,103831.38
2023-02-07T12:55:27.558Z,103845.34
2023-02-07T12:58:08.676Z,103845.22
2023-02-07T13:00:56.685Z,103837.66
2023-02-07T13:03:56.958Z,103841.91
2023-02-07T13:06:33.852Z,103840.81
2023-02-07T13:09:09.117Z,103835.50
2023-02-07T13:11:47.538Z,103832.16
2023-02-07T13:14:30.408Z,103831.50
2023-02-07T13:17:36.131Z,103827.53
2023-02-07T13:20:28.434Z,103828.03
2023-02-07T13:23:01.093Z,103821.78
2023-02-07T13:25:33.461Z,103825.28
2023-02-07T13:28:09.421Z,103826.56
2023-02-07T13:30:39.637Z,103823.69
2023-02-07T13:33:29.649Z,103823.91
2023-02-07T13:36:04.832Z,103823.66
2023-02-07T13:38:51.964Z,103822.88
2023-02-07T13:41:33.952Z,103816.91
2023-02-07T13:44:12.426Z,103812.19
2023-02-07T13:47:01.991Z,103817.38
2023-02-07T13:49:43.780Z,103819.44
2023-02-07T13:52:20.049Z,103815.13
2023-02-07T13:54:59.304Z,103812.03
2023-02-07T13:58:00.713Z,103812.31
2023-02-07T14:00:31.921Z,103807.66
2023-02-07T14:03:04.059Z,103806.41
2023-02-07T14:05:35.996Z,103824.09
2023-02-07T14:08:06.647Z,103822.25
2023-02-07T14:10:45.903Z,103815.38
2023-02-07T14:13:32.019Z,103743.03
2023-02-07T14:16:05.553Z,103814.94
2023-02-07T14:18:50.624Z,103808.25
2023-02-07T14:21:39.961Z,103810.56
2023-02-07T14:24:33.075Z,103819.19
2023-02-07T14:27:06.846Z,103823.72
2023-02-07T14:30:15.963Z,103816.00
2023-02-07T14:33:09.754Z,103809.06
2023-02-07T14:35:46.875Z,103808.66
2023-02-07T14:38:30.529Z,103817.59
2023-02-07T14:41:11.049Z,103804.16
2023-02-07T14:44:09.250Z,103815.66
2023-02-07T14:46:41.589Z,103804.28
2023-02-07T14:49:18.250Z,103808.19
2023-02-07T14:51:50.908Z,103811.13
2023-02-07T14:54:27.718Z,103808.34
2023-02-07T14:57:07.799Z,103802.91
2023-02-07T14:59:41.547Z,103798.19
2023-02-07T15:02:34.874Z,103803.25
2023-02-07T15:05:22.808Z,103793.25
2023-02-07T15:08:07.713Z,103792.88
2023-02-07T15:10:41.911Z,103794.50
2023-02-07T15:13:24.139Z,103801.38
2023-02-07T15:15:56.828Z,103786.03
2023-02-07T15:18:30.077Z,103791.47
2023-02-07T15:20:59.396Z,103792.63
2023-02-07T15:23:31.856Z,103798.03
2023-02-07T15:26:06.363Z,103780.59
2023-02-07T15:28:35.018Z,103782.72
2023-02-07T15:31:06.503Z,103781.31
2023-02-07T15:33:40.258Z,103784.09
2023-02-07T15:36:30.263Z,103786.22
2023-02-07T15:39:02.352Z,103784.69
2023-02-07T15:41:31.470Z,103762.06
2023-02-07T15:44:03.031Z,103785.78
2023-02-07T15:46:47.238Z,103793.91
2023-02-07T15:49:32.628Z,103788.63
2023-02-07T15:52:15.040Z,103794.66
2023-02-07T15:54:49.798Z,103782.94
2023-02-07T15:57:25.711Z,103786.94
2023-02-07T15:59:56.642Z,103793.22
2023-02-07T16:02:29.820Z,103781.41
2023-02-07T16:04:58.908Z,103798.31
2023-02-07T16:07:27.252Z,103789.00
2023-02-07T16:09:57.303Z,103798.81
2023-02-07T16:12:45.329Z,103791.28
2023-02-07T16:15:29.332Z,103792.56
2023-02-07T16:17:57.946Z,103796.53
2023-02-07T16:20:28.155Z,103802.41
2023-02-07T16:23:00.124Z,103813.97
2023-02-07T16:25:32.564Z,103811.38
2023-02-07T16:28:02.662Z,103818.34
2023-02-07T16:30:34.992Z,103799.38
2023-02-07T16:33:06.202Z,103817.34
2023-02-07T16:35:34.717Z,103795.19
2023-02-07T16:38:03.001Z,103817.59
2023-02-07T16:40:32.861Z,103826.00
2023-02-07T16:43:03.738Z,103828.72
2023-02-07T16:45:32.615Z,103823.06
2023-02-07T16:48:01.888Z,103825.09
2023-02-07T16:50:32.363Z,103825.09
2023-02-07T16:53:00.719Z,103819.69
2023-02-07T16:55:30.258Z,103825.28
2023-02-07T16:58:00.081Z,103827.06
2023-02-07T17:00:28.513Z,103828.16
2023-02-07T17:02:56.950Z,103830.47
2023-02-07T17:05:25.779Z,103819.34
2023-02-07T17:07:54.082Z,103828.22
2023-02-07T17:10:26.870Z,103832.22
2023-02-07T17:12:55.356Z,103826.59
2023-02-07T17:15:25.300Z,103759.31
2023-02-07T17:17:53.861Z,103831.22
2023-02-07T17:20:25.805Z,103831.16
2023-02-07T17:22:54.900Z,103829.59
2023-02-07T17:25:26.344Z,103841.47
2023-02-07T17:27:54.695Z,103806.34
2023-02-07T17:30:27.538Z,103833.94
2023-02-07T17:32:57.670Z,103827.88
2023-02-07T17:35:26.081Z,103822.63
2023-02-07T17:37:54.577Z,103829.41
2023-02-07T17:40:31.244Z,103706.28
2023-02-07T17:43:00.165Z,103799.03
2023-02-07T17:45:31.493Z,103814.41
2023-02-07T17:47:59.921Z,103826.44
2023-02-07T17:50:32.274Z,103814.81
2023-02-07T17:53:01.942Z,103821.59
2023-02-07T17:55:31.409Z,103830.69
2023-02-07T17:58:00.389Z,103817.06
2023-02-07T18:00:33.063Z,103825.16
2023-02-07T18:03:01.379Z,103833.84
2023-02-07T18:05:30.031Z,103830.03
2023-02-07T18:07:58.464Z,103827.44
2023-02-07T18:10:29.878Z,103829.97
2023-02-07T18:12:59.192Z,103833.59
2023-02-07T18:15:30.512Z,103791.84
2023-02-07T18:17:59.296Z,103833.16
2023-02-07T18:20:29.896Z,103849.00
2023-02-07T18:22:59.063Z,103828.03
2023-02-07T18:25:29.613Z,103821.69
2023-02-07T18:27:58.504Z,103825.00
2023-02-07T18:30:32.746Z,103817.75
2023-02-07T18:33:01.476Z,103816.59
2023-02-07T18:35:29.814Z,103808.66
2023-02-07T18:37:58.075Z,103810.41
2023-02-07T18:40:26.367Z,103812.81
2023-02-07T18:42:55.170Z,103811.22
2023-02-07T18:45:23.538Z,103802.19
2023-02-07T18:47:53.260Z,103720.34
2023-02-07T18:50:22.577Z,103802.88
2023-02-07T18:52:50.825Z,103809.91
2023-02-07T18:55:19.709Z,103814.16
2023-02-07T18:57:48.100Z,103808.22
2023-02-07T19:00:17.043Z,103805.84
2023-02-07T19:02:45.859Z,103793.81
2023-02-07T19:05:15.613Z,103818.13
2023-02-07T19:07:44.042Z,103815.19
2023-02-07T19:10:12.542Z,103808.19
2023-02-07T19:12:41.204Z,103813.44
2023-02-07T19:15:10.773Z,103801.34
2023-02-07T19:17:39.182Z,103789.53
2023-02-07T19:20:08.691Z,103802.25
2023-02-07T19:22:38.479Z,103806.91
2023-02-07T19:25:08.098Z,103797.78
2023-02-07T19:27:36.624Z,103805.38
2023-02-07T19:30:07.907Z,103801.66
2023-02-07T19:32:36.371Z,103804.84
2023-02-07T19:35:04.740Z,103803.84
2023-02-07T19:37:33.072Z,103802.75
2023-02-07T19:40:02.699Z,103801.13
2023-02-07T19:42:30.993Z,103797.81
2023-02-07T19:44:59.319Z,103794.59
2023-02-07T19:47:27.747Z,103797.81
2023-02-07T19:49:56.048Z,103797.91
2023-02-07T19:52:24.622Z,103807.06
2023-02-07T19:54:55.008Z,103805.31
2023-02-07T19:57:25.623Z,103810.59
2023-02-07T19:59:53.952Z,103814.31
2023-02-07T20:02:22.203Z,103810.75
2023-02-07T20:04:54.549Z,103821.00
2023-02-07T20:07:22.950Z,103813.75
2023-02-07T20:09:51.563Z,103751.78
2023-02-07T20:12:20.102Z,103830.38
2023-02-07T20:14:49.838Z,103819.69
2023-02-07T20:17:18.130Z,103832.19
2023-02-07T20:19:46.554Z,103734.78
2023-02-07T20:22:15.119Z,103829.13
2023-02-07T20:24:43.659Z,103826.69
2023-02-07T20:27:12.063Z,103824.06
2023-02-07T20:29:40.453Z,103720.56
2023-02-07T20:32:12.710Z,103828.78
2023-02-07T20:34:41.620Z,103831.50
2023-02-07T20:37:11.098Z,103826.44
2023-02-07T20:39:39.834Z,103822.88
2023-02-07T20:42:08.198Z,103831.88
2023-02-07T20:44:36.607Z,103826.59
2023-02-07T20:47:05.406Z,103835.66
2023-02-07T20:49:35.146Z,103832.78
2023-02-07T20:52:03.732Z,103829.22
2023-02-07T20:54:32.767Z,103829.16
2023-02-07T20:57:01.130Z,103838.00
2023-02-07T20:59:33.117Z,103797.75
2023-02-07T21:02:02.479Z,103797.56
2023-02-07T21:04:31.518Z,103819.88
2023-02-07T21:07:01.625Z,103820.00
2023-02-07T21:09:31.035Z,103820.25
2023-02-07T21:11:59.458Z,103801.19
2023-02-07T21:14:30.573Z,103811.28
2023-02-07T21:17:02.316Z,103809.28
2023-02-07T21:19:30.740Z,103810.53
2023-02-07T21:22:00.409Z,103798.19
2023-02-07T21:24:29.097Z,103811.53
2023-02-07T21:26:58.393Z,103804.09
2023-02-07T21:29:27.873Z,103799.75
2023-02-07T21:31:56.466Z,103806.84
2023-02-07T21:34:25.619Z,103776.81
2023-02-07T21:36:54.194Z,103797.81
2023-02-07T21:39:24.918Z,103798.94
2023-02-07T21:41:53.549Z,103794.56
2023-02-07T21:44:22.231Z,103787.44
2023-02-07T21:46:51.474Z,103782.97
2023-02-07T21:49:21.841Z,103791.69
2023-02-07T21:51:54.041Z,103787.69
2023-02-07T21:54:23.739Z,103782.16
2023-02-07T21:56:52.290Z,103755.25
2023-02-07T21:59:22.454Z,103785.56
2023-02-07T22:01:51.323Z,103784.94
2023-02-07T22:04:19.848Z,103765.63
2023-02-07T22:06:49.297Z,103777.63
2023-02-07T22:09:20.487Z,103768.84
2023-02-07T22:11:50.712Z,103766.84
2023-02-07T22:14:19.532Z,103776.13
2023-02-07T22:16:52.341Z,103776.34
2023-02-07T22:19:22.319Z,103778.88
2023-02-07T22:21:51.683Z,103768.53
2023-02-07T22:24:21.162Z,103778.19
2023-02-07T22:26:50.951Z,103759.09
2023-02-07T22:29:19.297Z,103790.41
2023-02-07T22:31:47.909Z,103784.69
2023-02-07T22:34:16.629Z,103748.81
2023-02-07T22:36:46.170Z,103772.09
2023-02-07T22:39:17.115Z,103776.44
2023-02-07T22:41:46.629Z,103749.03
2023-02-07T22:44:16.544Z,103779.06
2023-02-07T22:46:44.936Z,103774.59
2023-02-07T22:49:13.348Z,103762.78
2023-02-07T22:51:41.867Z,103775.69
2023-02-07T22:54:16.583Z,103774.59
2023-02-07T22:56:46.281Z,103766.13
2023-02-07T22:59:16.061Z,103771.38
2023-02-07T23:01:45.970Z,103764.00
2023-02-07T23:04:18.226Z,103762.56
2023-02-07T23:06:47.346Z,103761.91
2023-02-07T23:09:16.362Z,103687.31
2023-02-07T23:11:44.733Z,103742.97
2023-02-07T23:14:13.499Z,103761.41
2023-02-07T23:16:44.126Z,103767.22
2023-02-07T23:19:16.225Z,103680.47
2023-02-07T23:21:44.908Z,103775.09
2023-02-07T23:24:13.622Z,103765.81
2023-02-07T23:26:42.301Z,103760.59
2023-02-07T23:29:10.946Z,103770.44
2023-02-07T23:31:39.502Z,103767.63
2023-02-07T23:34:10.364Z,103770.09
2023-02-07T23:36:39.072Z,103729.44
2023-02-07T23:39:07.686Z,103777.13
2023-02-07T23:41:36.336Z,103778.09
2023-02-07T23:44:05.831Z,103774.25
2023-02-07T23:46:34.943Z,103772.19
2023-02-07T23:49:03.893Z,103741.19
2023-02-07T23:51:33.748Z,103766.44
2023-02-07T23:54:02.774Z,103739.66
2023-02-07T23:56:31.156Z,103759.81
2023-02-07T23:58:59.439Z,103770.34
